Time;durP1;ratioP1;P1;durP2;ratioP2;P2;SDS_P1;SDS_P2;PMS_P1;PMS_P2;Temp;Humidity;BMP_temperature;BMP_pressure;BME280_temperature;BME280_humidity;BME280_pressure;Samples;Min_cycle;Max_cycle;Signal;HPM_P1;HPM_P2
2021/12/21 00:01:46;;;;;;;0.10;0.10;;;1.00;99.90;;;;;;4993204;28;20080;-71
2021/12/21 00:04:12;;;;;;;1.10;1.10;;;0.90;99.90;;;;;;4996497;28;20084;-72
2021/12/21 00:06:38;;;;;;;0.10;0.10;;;0.90;99.90;;;;;;4989091;28;20110;-72
2021/12/21 00:09:04;;;;;;;0.90;0.70;;;1.00;99.90;;;;;;4992548;28;20026;-71
2021/12/21 00:11:30;;;;;;;1.20;1.20;;;1.00;99.90;;;;;;4989694;28;20037;-71
2021/12/21 00:14:22;;;;;;;0.10;0.10;;;1.00;99.90;;;;;;4990394;28;20052;-70
2021/12/21 00:17:13;;;;;;;0.13;0.13;;;1.00;99.90;;;;;;4986338;28;20477;-70
2021/12/21 00:19:49;;;;;;;0.10;0.10;;;1.00;99.90;;;;;;4981423;28;20042;-71
2021/12/21 00:22:54;;;;;;;0.35;0.35;;;0.90;99.90;;;;;;4983904;28;20382;-70
2021/12/21 00:25:09;;;;;;;0.10;0.10;;;1.70;99.90;;;;;;4977440;28;20058;-69
2021/12/21 00:27:35;;;;;;;0.22;0.22;;;0.90;99.90;;;;;;4989011;28;20054;-71
2021/12/21 00:30:00;;;;;;;0.10;0.10;;;0.80;99.90;;;;;;4989055;28;20060;-70
2021/12/21 00:32:27;;;;;;;2.75;2.63;;;0.80;99.90;;;;;;4989591;28;20026;-70
2021/12/21 00:34:53;;;;;;;0.10;0.10;;;0.80;99.90;;;;;;4988312;28;20130;-70
2021/12/21 00:37:19;;;;;;;0.73;0.73;;;0.80;99.90;;;;;;4978547;28;20054;-70
2021/12/21 00:39:44;;;;;;;0.10;0.10;;;0.80;99.90;;;;;;4989658;28;20105;-70
2021/12/21 00:42:10;;;;;;;0.20;0.20;;;0.80;99.90;;;;;;4989542;28;20093;-71
2021/12/21 00:44:35;;;;;;;0.32;0.32;;;0.70;99.90;;;;;;4988232;28;20034;-70
2021/12/21 00:47:01;;;;;;;0.10;0.10;;;0.70;99.90;;;;;;4987965;28;20045;-70
2021/12/21 00:49:27;;;;;;;0.10;0.10;;;0.70;99.90;;;;;;4989254;28;20060;-69
2021/12/21 00:51:53;;;;;;;2.90;2.65;;;0.70;99.90;;;;;;4978616;28;20065;-70
2021/12/21 00:54:18;;;;;;;0.10;0.10;;;0.70;99.90;;;;;;4973886;28;20027;-72
2021/12/21 00:56:44;;;;;;;0.32;0.32;;;0.60;99.90;;;;;;4989758;28;20054;-71
2021/12/21 00:59:10;;;;;;;2.53;2.33;;;0.60;99.90;;;;;;4989092;28;20030;-70
2021/12/21 01:01:37;;;;;;;0.40;0.40;;;0.60;99.90;;;;;;4989646;28;20034;-70
2021/12/21 01:04:07;;;;;;;0.10;0.10;;;0.50;99.90;;;;;;4978015;28;20039;-72
2021/12/21 01:11:42;;;;;;;0.10;0.10;;;0.50;99.90;;;;;;4986143;28;20026;-71
2021/12/21 01:16:58;;;;;;;0.10;0.10;;;0.50;99.90;;;;;;4969945;28;20066;-70
2021/12/21 01:19:31;;;;;;;0.10;0.10;;;0.50;99.90;;;;;;4969911;28;20109;-70
2021/12/21 01:22:28;;;;;;;0.08;0.08;;;0.30;99.90;;;;;;4977901;28;20113;-70
2021/12/21 01:30:16;;;;;;;0.10;0.10;;;0.30;99.90;;;;;;4989745;28;20117;-70
2021/12/21 01:35:55;;;;;;;0.10;0.10;;;0.30;99.90;;;;;;4992528;28;20034;-69
2021/12/21 01:38:07;;;;;;;0.10;0.10;;;0.30;99.90;;;;;;4984868;28;20038;-70
2021/12/21 01:40:50;;;;;;;0.20;0.20;;;0.30;99.90;;;;;;4972830;28;20057;-69
2021/12/21 01:51:12;;;;;;;0.10;0.10;;;0.20;99.90;;;;;;4973210;28;20528;-70
2021/12/21 01:53:40;;;;;;;0.10;0.10;;;0.20;99.90;;;;;;4991621;28;20034;-69
2021/12/21 01:56:06;;;;;;;0.10;0.10;;;0.20;99.90;;;;;;4975069;28;20027;-69
2021/12/21 01:58:33;;;;;;;1.10;1.10;;;0.20;99.90;;;;;;4973568;28;20014;-69
2021/12/21 02:01:01;;;;;;;0.75;0.75;;;0.30;99.90;;;;;;4991545;28;20445;-69
2021/12/21 02:03:27;;;;;;;0.10;0.10;;;0.20;99.90;;;;;;4977234;28;20688;-71
2021/12/21 02:05:53;;;;;;;0.95;0.95;;;0.20;99.90;;;;;;4991733;28;20031;-70
2021/12/21 02:08:18;;;;;;;1.58;1.48;;;0.10;99.90;;;;;;4977172;28;20049;-70
2021/12/21 02:10:44;;;;;;;0.28;0.28;;;0.20;99.90;;;;;;4972228;28;20027;-70
2021/12/21 02:13:10;;;;;;;1.52;1.38;;;0.10;99.90;;;;;;4973727;28;20506;-70
2021/12/21 02:15:35;;;;;;;3.50;2.72;;;0.20;99.90;;;;;;4988841;28;20065;-71
2021/12/21 02:30:29;;;;;;;0.10;0.10;;;-0.20;99.90;;;;;;4971859;28;20035;-70
2021/12/21 02:32:55;;;;;;;0.85;0.85;;;-0.20;99.90;;;;;;4984017;28;20088;-69
2021/12/21 02:35:21;;;;;;;0.10;0.10;;;-0.20;99.90;;;;;;4991052;28;20045;-70
2021/12/21 02:37:46;;;;;;;0.10;0.10;;;-0.20;99.90;;;;;;4981698;28;20455;-70
2021/12/21 02:40:12;;;;;;;0.40;0.40;;;-0.20;99.90;;;;;;4980192;28;20057;-70
2021/12/21 02:42:38;;;;;;;0.10;0.10;;;-0.20;99.90;;;;;;4989430;28;20022;-70
2021/12/21 02:45:06;;;;;;;0.20;0.20;;;-0.10;99.90;;;;;;4989483;28;20038;-70
2021/12/21 02:47:31;;;;;;;0.10;0.10;;;-0.20;99.90;;;;;;4989620;28;20030;-70
2021/12/21 02:49:58;;;;;;;0.10;0.10;;;-0.20;99.90;;;;;;4990608;28;20045;-70
2021/12/21 02:52:24;;;;;;;7.53;6.80;;;-0.20;99.90;;;;;;4985389;28;20037;-71
2021/12/21 02:54:49;;;;;;;3.35;2.22;;;-0.20;99.90;;;;;;4971408;28;20038;-70
2021/12/21 02:57:15;;;;;;;0.10;0.10;;;-0.20;99.90;;;;;;4974934;28;20033;-70
2021/12/21 02:59:40;;;;;;;0.40;0.40;;;-0.20;99.90;;;;;;4990271;28;20431;-69
2021/12/21 03:02:06;;;;;;;0.10;0.10;;;-0.20;99.90;;;;;;4987121;28;20037;-70
2021/12/21 03:04:32;;;;;;;10.30;4.28;;;-0.20;99.90;;;;;;4983438;28;20034;-70
2021/12/21 03:11:58;;;;;;;0.10;0.10;;;-0.30;99.90;;;;;;4975436;28;20130;-70
2021/12/21 03:14:24;;;;;;;0.10;0.10;;;-0.40;99.90;;;;;;4974219;28;20334;-70
2021/12/21 03:16:50;;;;;;;0.35;0.35;;;-0.40;99.90;;;;;;4990097;28;20030;-70
2021/12/21 03:19:16;;;;;;;0.10;0.10;;;-0.30;99.90;;;;;;4969494;28;20485;-70
2021/12/21 03:21:42;;;;;;;0.10;0.10;;;-0.20;99.90;;;;;;4971230;28;20030;-70
2021/12/21 03:24:09;;;;;;;0.17;0.17;;;-0.10;99.90;;;;;;4972610;28;20039;-70
2021/12/21 03:26:35;;;;;;;0.13;0.13;;;-0.10;99.90;;;;;;4976730;28;20041;-69
2021/12/21 03:29:02;;;;;;;0.10;0.10;;;-0.10;99.90;;;;;;5001089;28;20053;-70
2021/12/21 03:31:28;;;;;;;0.77;0.77;;;0.00;99.90;;;;;;4988907;28;20789;-69
2021/12/21 03:33:53;;;;;;;0.10;0.10;;;0.00;99.90;;;;;;4988748;28;20054;-71
2021/12/21 03:36:19;;;;;;;0.10;0.10;;;0.00;99.90;;;;;;4981920;28;20500;-69
2021/12/21 03:38:52;;;;;;;0.10;0.10;;;0.00;99.90;;;;;;4977577;28;20271;-70
2021/12/21 03:41:19;;;;;;;0.10;0.10;;;-0.10;99.90;;;;;;4971046;28;20023;-69
2021/12/21 03:43:45;;;;;;;0.47;0.47;;;0.00;99.90;;;;;;4971908;28;20039;-70
2021/12/21 03:46:13;;;;;;;0.10;0.10;;;-0.10;99.90;;;;;;4989650;28;20030;-70
2021/12/21 03:48:42;;;;;;;0.10;0.10;;;-0.20;99.90;;;;;;4973905;28;20015;-70
2021/12/21 03:51:08;;;;;;;0.10;0.10;;;-0.20;99.90;;;;;;4970344;28;20141;-69
2021/12/21 03:53:34;;;;;;;0.10;0.10;;;-0.10;99.90;;;;;;4977329;28;20027;-70
2021/12/21 03:56:19;;;;;;;1.23;1.23;;;-0.10;99.90;;;;;;4986351;28;20026;-69
2021/12/21 03:58:45;;;;;;;0.10;0.10;;;-0.10;99.90;;;;;;4989686;28;20126;-69
2021/12/21 04:01:10;;;;;;;4.00;3.00;;;-0.10;99.90;;;;;;4989466;28;20041;-69
2021/12/21 04:03:36;;;;;;;0.10;0.10;;;-0.10;99.90;;;;;;4981558;28;20412;-69
2021/12/21 04:06:03;;;;;;;0.10;0.10;;;0.00;99.90;;;;;;4969883;28;20114;-70
2021/12/21 04:08:28;;;;;;;0.35;0.35;;;-0.10;99.90;;;;;;4975131;28;20022;-70
2021/12/21 04:10:54;;;;;;;0.10;0.10;;;-0.10;99.90;;;;;;4989012;28;20038;-70
2021/12/21 04:13:20;;;;;;;0.20;0.20;;;0.10;99.90;;;;;;4986619;28;20034;-70
2021/12/21 04:15:50;;;;;;;0.20;0.20;;;0.00;99.90;;;;;;4990108;28;20038;-70
2021/12/21 04:18:18;;;;;;;0.95;0.95;;;-0.10;99.90;;;;;;4989815;28;20118;-70
2021/12/21 04:20:45;;;;;;;0.10;0.10;;;-0.20;99.90;;;;;;4989324;28;20022;-70
2021/12/21 04:23:10;;;;;;;0.10;0.10;;;-0.20;99.90;;;;;;4978986;28;20034;-69
2021/12/21 04:25:36;;;;;;;1.27;1.17;;;-0.30;99.90;;;;;;4989497;28;20038;-70
2021/12/21 04:28:02;;;;;;;1.65;1.55;;;-0.40;99.90;;;;;;4989638;28;20043;-70
2021/12/21 04:30:28;;;;;;;3.47;3.20;;;-0.40;99.90;;;;;;4980529;28;20019;-71
2021/12/21 04:32:54;;;;;;;0.10;0.10;;;-0.50;99.90;;;;;;4978481;28;20030;-72
2021/12/21 04:35:21;;;;;;;0.10;0.10;;;-0.60;99.90;;;;;;5000850;28;20060;-70
2021/12/21 04:37:56;;;;;;;0.10;0.10;;;-0.50;99.90;;;;;;5009587;28;20149;-70
2021/12/21 04:40:27;;;;;;;0.20;0.20;;;-0.50;99.90;;;;;;4969674;28;20111;-71
2021/12/21 04:42:53;;;;;;;0.20;0.20;;;-0.40;99.90;;;;;;4971182;28;20019;-71
2021/12/21 04:45:18;;;;;;;0.10;0.10;;;-0.40;99.90;;;;;;4989242;28;20104;-69
2021/12/21 04:47:44;;;;;;;0.55;0.55;;;-0.40;99.90;;;;;;4979467;28;20055;-70
2021/12/21 04:50:10;;;;;;;0.10;0.10;;;-0.40;99.90;;;;;;4969575;28;20039;-70
2021/12/21 04:52:36;;;;;;;0.10;0.10;;;-0.40;99.90;;;;;;4978981;28;20238;-71
2021/12/21 04:55:03;;;;;;;0.10;0.10;;;-0.40;99.90;;;;;;4979753;28;20476;-69
2021/12/21 04:57:28;;;;;;;0.10;0.10;;;-0.40;99.90;;;;;;4989204;28;20102;-70
2021/12/21 04:59:54;;;;;;;0.10;0.10;;;-0.40;99.90;;;;;;4991875;28;20097;-69
2021/12/21 05:02:19;;;;;;;0.10;0.10;;;-0.40;99.90;;;;;;4992988;28;20077;-70
2021/12/21 05:04:45;;;;;;;0.85;0.85;;;-0.40;99.90;;;;;;4976472;28;20109;-70
2021/12/21 05:07:12;;;;;;;0.10;0.10;;;-0.40;99.90;;;;;;4979706;28;20041;-71
2021/12/21 05:09:43;;;;;;;0.10;0.10;;;-0.40;99.90;;;;;;4991822;28;20374;-70
2021/12/21 05:12:11;;;;;;;0.25;0.25;;;-0.50;99.90;;;;;;4983420;28;20018;-70
2021/12/21 05:14:37;;;;;;;0.20;0.20;;;-0.50;99.90;;;;;;4991904;28;20061;-70
2021/12/21 05:17:03;;;;;;;0.10;0.10;;;-0.40;99.90;;;;;;4992919;28;20057;-69
2021/12/21 05:19:29;;;;;;;4.28;3.95;;;-0.50;99.90;;;;;;4973716;28;20105;-69
2021/12/21 05:21:55;;;;;;;0.52;0.52;;;-0.60;99.90;;;;;;4973537;28;20537;-70
2021/12/21 05:24:20;;;;;;;0.10;0.10;;;-0.70;99.90;;;;;;4981195;28;20044;-69
2021/12/21 05:26:46;;;;;;;0.10;0.10;;;-0.70;99.90;;;;;;4992084;28;20400;-69
2021/12/21 05:29:12;;;;;;;1.08;1.05;;;-0.70;99.90;;;;;;4983192;28;20436;-70
2021/12/21 05:31:38;;;;;;;0.10;0.10;;;-0.80;99.90;;;;;;4973105;28;20061;-70
2021/12/21 05:34:03;;;;;;;0.10;0.10;;;-0.80;99.90;;;;;;4973734;28;20030;-69
2021/12/21 05:36:29;;;;;;;0.32;0.32;;;-0.80;99.90;;;;;;4992396;28;20030;-70
2021/12/21 05:39:00;;;;;;;0.10;0.10;;;-0.70;99.90;;;;;;4978313;28;20045;-70
2021/12/21 05:41:39;;;;;;;0.10;0.10;;;-0.80;99.90;;;;;;4971271;28;20457;-69
2021/12/21 05:44:05;;;;;;;0.10;0.10;;;-0.80;99.90;;;;;;5001840;28;20037;-70
2021/12/21 05:46:31;;;;;;;0.10;0.10;;;-0.80;99.90;;;;;;4991321;28;20026;-71
2021/12/21 05:48:57;;;;;;;1.10;1.10;;;-0.80;99.90;;;;;;4989999;28;20100;-70
2021/12/21 05:51:22;;;;;;;1.58;1.48;;;-0.80;99.90;;;;;;4989982;28;20125;-72
2021/12/21 05:53:49;;;;;;;0.10;0.10;;;-0.80;99.90;;;;;;4991245;28;20034;-70
2021/12/21 05:56:15;;;;;;;0.43;0.43;;;-0.80;99.90;;;;;;4986636;28;20081;-69
2021/12/21 05:58:41;;;;;;;1.02;1.02;;;-0.80;99.90;;;;;;4991834;28;20488;-70
2021/12/21 06:01:07;;;;;;;0.00;0.00;;;-0.80;99.90;;;;;;4986546;28;20069;-69
2021/12/21 06:03:33;;;;;;;4.38;2.45;;;-0.80;99.90;;;;;;4979101;28;20100;-70
2021/12/21 06:05:59;;;;;;;0.43;0.43;;;-0.70;99.90;;;;;;4990091;28;20492;-70
2021/12/21 06:08:25;;;;;;;0.10;0.10;;;-0.70;99.90;;;;;;4991748;28;20039;-70
2021/12/21 06:10:54;;;;;;;0.10;0.10;;;-0.90;99.90;;;;;;4976142;28;20125;-70
2021/12/21 06:13:46;;;;;;;1.95;1.70;;;-0.80;99.90;;;;;;4971859;28;20026;-69
2021/12/21 06:22:43;;;;;;;0.10;0.10;;;-0.90;99.90;;;;;;4972448;28;20047;-70
2021/12/21 06:27:27;;;;;;;0.13;0.13;;;-0.80;99.90;;;;;;4992253;28;20041;-70
2021/12/21 06:29:52;;;;;;;1.90;1.85;;;-0.80;99.90;;;;;;4987796;28;20031;-69
2021/12/21 06:32:18;;;;;;;0.10;0.10;;;-0.80;99.90;;;;;;4979599;28;20027;-69
2021/12/21 06:34:44;;;;;;;0.10;0.10;;;-0.80;99.90;;;;;;4991454;28;20042;-70
2021/12/21 06:37:10;;;;;;;1.95;1.85;;;-0.80;99.90;;;;;;4995039;28;20018;-70
2021/12/21 06:39:36;;;;;;;0.25;0.25;;;-0.80;99.90;;;;;;4978964;28;20117;-70
2021/12/21 06:42:02;;;;;;;0.10;0.10;;;-0.90;99.90;;;;;;4988091;28;20102;-70
2021/12/21 06:44:30;;;;;;;0.10;0.10;;;-0.90;99.90;;;;;;4990616;28;20229;-70
2021/12/21 06:52:28;;;;;;;0.10;0.10;;;-0.90;99.90;;;;;;5002852;28;20064;-71
2021/12/21 06:54:54;;;;;;;0.10;0.10;;;-0.90;99.90;;;;;;4984531;28;20311;-69
2021/12/21 06:57:20;;;;;;;10.68;2.83;;;-1.00;99.90;;;;;;4981108;28;20480;-70
2021/12/21 06:59:46;;;;;;;0.52;0.52;;;-0.90;99.90;;;;;;4981371;28;20023;-70
2021/12/21 07:02:12;;;;;;;0.25;0.25;;;-0.90;99.90;;;;;;4979223;28;20544;-69
2021/12/21 07:04:38;;;;;;;0.20;0.20;;;-0.90;99.90;;;;;;4989772;28;20034;-70
2021/12/21 07:07:04;;;;;;;0.10;0.10;;;-0.90;99.90;;;;;;4977355;28;20092;-70
2021/12/21 07:09:37;;;;;;;0.10;0.10;;;-0.90;99.90;;;;;;4977258;28;20069;-70
2021/12/21 07:12:35;;;;;;;;;;;-0.90;99.90;;;;;;4989468;28;20556;-70
2021/12/21 07:18:07;;;;;;;0.10;0.10;;;-1.00;99.90;;;;;;4987252;28;20073;-70
2021/12/21 07:20:33;;;;;;;0.20;0.20;;;-1.00;99.90;;;;;;4983663;28;20038;-72
2021/12/21 07:22:58;;;;;;;0.10;0.10;;;-1.00;99.90;;;;;;4986615;28;20041;-71
2021/12/21 07:25:27;;;;;;;0.20;0.20;;;-1.00;99.90;;;;;;4981409;28;20026;-70
2021/12/21 07:27:53;;;;;;;0.10;0.10;;;-1.00;99.90;;;;;;4987317;28;20035;-69
2021/12/21 07:30:20;;;;;;;0.10;0.10;;;-0.90;99.90;;;;;;4988360;28;20042;-70
2021/12/21 07:32:46;;;;;;;0.10;0.10;;;-0.90;99.90;;;;;;4989828;28;20500;-72
2021/12/21 07:35:12;;;;;;;0.10;0.10;;;-0.90;99.90;;;;;;4984457;28;20027;-71
2021/12/21 07:37:37;;;;;;;6.13;2.55;;;-0.80;99.90;;;;;;4989869;28;20484;-70
2021/12/21 07:40:05;;;;;;;0.40;0.40;;;-0.80;99.90;;;;;;4989236;28;20032;-72
2021/12/21 07:42:31;;;;;;;0.30;0.30;;;-0.70;99.90;;;;;;4989141;28;20026;-70
2021/12/21 07:44:57;;;;;;;0.55;0.55;;;-0.70;99.90;;;;;;4971440;28;20031;-72
2021/12/21 07:47:23;;;;;;;0.10;0.10;;;-0.70;99.90;;;;;;4986640;28;20048;-70
2021/12/21 07:49:49;;;;;;;0.10;0.10;;;-0.70;99.90;;;;;;4989052;28;20073;-70
2021/12/21 07:52:15;;;;;;;0.10;0.10;;;-0.60;99.90;;;;;;4988731;28;20026;-73
2021/12/21 07:54:41;;;;;;;0.60;0.60;;;-0.60;99.90;;;;;;4987210;28;20452;-72
2021/12/21 07:57:07;;;;;;;0.10;0.10;;;-0.60;99.90;;;;;;4994057;28;20036;-70
2021/12/21 07:59:34;;;;;;;0.10;0.10;;;-0.60;99.90;;;;;;4991899;28;20030;-69
2021/12/21 08:02:00;;;;;;;0.10;0.10;;;-0.60;99.90;;;;;;4975659;28;20511;-71
2021/12/21 08:04:28;;;;;;;0.20;0.20;;;-0.60;99.90;;;;;;4980512;28;20109;-71
2021/12/21 08:06:56;;;;;;;0.10;0.10;;;-0.60;99.90;;;;;;4988700;28;20030;-71
2021/12/21 08:09:25;;;;;;;0.20;0.20;;;-0.70;99.90;;;;;;4989429;28;20018;-70
2021/12/21 08:14:35;;;;;;;0.10;0.10;;;-0.70;99.90;;;;;;4973469;28;20373;-71
2021/12/21 08:17:01;;;;;;;0.10;0.10;;;-0.60;99.90;;;;;;4987971;28;20023;-71
2021/12/21 08:19:26;;;;;;;0.65;0.65;;;-0.50;99.90;;;;;;4980179;28;20063;-71
2021/12/21 08:21:52;;;;;;;0.10;0.10;;;-0.50;99.90;;;;;;4989388;28;20028;-71
2021/12/21 08:24:18;;;;;;;0.20;0.20;;;-0.40;99.90;;;;;;4987856;28;20507;-70
2021/12/21 08:26:43;;;;;;;0.20;0.20;;;-0.40;99.90;;;;;;4986802;28;20056;-70
2021/12/21 08:29:09;;;;;;;0.20;0.20;;;-0.50;99.90;;;;;;4971477;28;20031;-71
2021/12/21 08:31:35;;;;;;;0.20;0.20;;;-0.50;99.90;;;;;;4981078;28;20041;-71
2021/12/21 08:34:01;;;;;;;0.10;0.10;;;-0.40;99.90;;;;;;4991231;28;20109;-70
2021/12/21 08:36:27;;;;;;;0.10;0.10;;;-0.40;99.90;;;;;;4986553;28;20110;-69
2021/12/21 08:38:53;;;;;;;0.63;0.63;;;-0.40;99.90;;;;;;4990507;28;20030;-71
2021/12/21 08:41:20;;;;;;;0.10;0.10;;;-0.40;99.90;;;;;;4991928;28;20034;-70
2021/12/21 08:43:47;;;;;;;0.65;0.65;;;-0.40;99.90;;;;;;4991015;28;20481;-71
2021/12/21 08:46:12;;;;;;;0.10;0.10;;;-0.40;99.90;;;;;;4993555;28;20046;-71
2021/12/21 08:48:38;;;;;;;0.10;0.10;;;-0.30;99.90;;;;;;4992878;28;20550;-72
2021/12/21 08:51:05;;;;;;;0.82;0.82;;;-0.40;99.90;;;;;;4986742;28;20089;-70
2021/12/21 08:53:31;;;;;;;0.10;0.10;;;-0.40;99.90;;;;;;4973039;28;20023;-71
2021/12/21 08:55:58;;;;;;;0.57;0.57;;;-0.40;99.90;;;;;;4976712;28;20022;-70
2021/12/21 08:58:24;;;;;;;0.20;0.20;;;-0.40;99.90;;;;;;4994126;28;20030;-70
2021/12/21 09:00:50;;;;;;;0.10;0.10;;;-0.50;99.90;;;;;;4981857;28;20524;-71
2021/12/21 09:03:17;;;;;;;0.10;0.10;;;-0.50;99.90;;;;;;5003604;28;20022;-70
2021/12/21 09:05:43;;;;;;;0.10;0.10;;;-0.50;99.90;;;;;;5009142;22;20030;-70
2021/12/21 09:08:10;;;;;;;0.10;0.10;;;-0.50;99.90;;;;;;5019711;28;20091;-69
2021/12/21 09:10:36;;;;;;;0.10;0.10;;;-0.40;99.90;;;;;;5018197;28;20030;-71
2021/12/21 09:13:02;;;;;;;0.10;0.10;;;-0.20;99.90;;;;;;5014791;28;20069;-71
2021/12/21 09:15:29;;;;;;;2.05;1.95;;;-0.20;99.90;;;;;;5000581;28;20041;-68
2021/12/21 09:17:56;;;;;;;0.10;0.10;;;-0.10;99.90;;;;;;5017030;28;20026;-70
2021/12/21 09:20:24;;;;;;;0.10;0.10;;;0.00;99.90;;;;;;5008156;28;20105;-71
2021/12/21 09:22:51;;;;;;;1.48;1.38;;;-0.10;99.90;;;;;;5012280;28;20033;-71
2021/12/21 09:25:17;;;;;;;0.10;0.10;;;0.00;99.90;;;;;;4999056;28;20508;-71
2021/12/21 09:27:43;;;;;;;0.73;0.68;;;0.10;99.90;;;;;;5005121;28;20513;-71
2021/12/21 09:30:13;;;;;;;0.10;0.10;;;0.60;99.90;;;;;;5011161;28;20033;-70
2021/12/21 09:32:39;;;;;;;0.10;0.10;;;0.80;99.90;;;;;;4998732;28;20030;-71
2021/12/21 09:35:06;;;;;;;0.10;0.10;;;1.00;99.90;;;;;;5011239;28;20232;-70
2021/12/21 09:37:32;;;;;;;0.10;0.10;;;0.80;99.90;;;;;;4999327;28;20445;-70
2021/12/21 09:39:58;;;;;;;0.20;0.20;;;0.70;99.90;;;;;;5004865;28;20112;-70
2021/12/21 09:42:27;;;;;;;0.52;0.52;;;0.60;99.90;;;;;;5003190;28;20033;-72
2021/12/21 09:44:53;;;;;;;0.10;0.10;;;0.40;99.90;;;;;;5006924;28;20033;-70
2021/12/21 09:47:19;;;;;;;0.10;0.10;;;0.40;99.90;;;;;;5007302;28;20088;-70
2021/12/21 09:49:47;;;;;;;0.75;0.75;;;0.40;99.90;;;;;;5009527;28;20061;-71
2021/12/21 09:52:18;;;;;;;0.10;0.10;;;0.40;99.90;;;;;;5006236;28;20030;-71
2021/12/21 09:54:44;;;;;;;0.10;0.10;;;0.50;99.90;;;;;;5001397;28;20038;-71
2021/12/21 09:57:10;;;;;;;0.10;0.10;;;0.60;99.90;;;;;;5002721;28;20029;-71
2021/12/21 09:59:36;;;;;;;0.10;0.10;;;0.60;99.90;;;;;;5010686;28;20029;-72
2021/12/21 10:02:02;;;;;;;0.30;0.30;;;0.70;99.90;;;;;;5010552;28;20425;-71
2021/12/21 10:04:29;;;;;;;0.10;0.10;;;0.80;99.90;;;;;;5008805;28;20026;-72
2021/12/21 10:06:57;;;;;;;1.75;1.65;;;0.80;99.90;;;;;;5004252;28;20029;-69
2021/12/21 10:09:31;;;;;;;0.50;0.50;;;0.80;99.90;;;;;;5007257;28;20492;-70
2021/12/21 10:11:57;;;;;;;0.10;0.10;;;0.80;99.90;;;;;;5005495;28;20034;-71
2021/12/21 10:14:25;;;;;;;0.15;0.15;;;0.90;99.90;;;;;;5005259;28;20057;-71
2021/12/21 10:17:08;;;;;;;4.68;4.07;;;0.90;99.90;;;;;;5003890;28;20022;-73
2021/12/21 10:19:35;;;;;;;4.30;4.00;;;0.90;99.90;;;;;;5002291;28;20017;-70
2021/12/21 10:22:15;;;;;;;0.75;0.75;;;0.90;99.90;;;;;;5004818;28;20056;-71
2021/12/21 10:24:47;;;;;;;0.10;0.10;;;1.00;99.90;;;;;;5000231;28;20073;-70
2021/12/21 10:27:14;;;;;;;1.40;1.33;;;1.00;99.90;;;;;;4998704;28;20029;-70
2021/12/21 10:29:45;;;;;;;0.30;0.30;;;1.10;99.90;;;;;;5002992;28;20499;-71
2021/12/21 10:32:18;;;;;;;0.10;0.10;;;1.10;99.90;;;;;;5005543;28;20080;-72
2021/12/21 10:35:12;;;;;;;0.10;0.10;;;1.20;99.90;;;;;;5002871;28;20026;-71
2021/12/21 10:37:40;;;;;;;0.10;0.10;;;1.30;99.90;;;;;;5008780;28;20034;-72
2021/12/21 10:40:16;;;;;;;0.10;0.10;;;1.30;99.90;;;;;;5005190;28;20476;-71
2021/12/21 10:42:50;;;;;;;0.10;0.10;;;1.30;99.90;;;;;;5003756;28;20036;-72
2021/12/21 10:45:17;;;;;;;6.78;2.40;;;1.40;99.90;;;;;;5004534;28;20061;-73
2021/12/21 10:47:46;;;;;;;0.10;0.10;;;1.30;99.90;;;;;;5007438;28;20507;-71
2021/12/21 10:50:13;;;;;;;0.10;0.10;;;1.40;99.90;;;;;;5003542;28;20030;-71
2021/12/21 10:52:48;;;;;;;0.10;0.10;;;1.50;99.90;;;;;;5006657;28;20574;-70
2021/12/21 10:55:14;;;;;;;0.10;0.10;;;1.60;99.90;;;;;;5008568;28;20064;-72
2021/12/21 10:57:39;;;;;;;0.10;0.10;;;1.60;99.90;;;;;;5005649;28;20113;-73
2021/12/21 11:00:14;;;;;;;0.10;0.10;;;1.70;99.90;;;;;;5010960;28;20033;-77
2021/12/21 11:02:41;;;;;;;0.25;0.25;;;1.70;99.90;;;;;;5009706;28;20037;-77
2021/12/21 11:05:09;;;;;;;0.15;0.15;;;1.90;99.90;;;;;;5009366;28;20491;-77
2021/12/21 11:07:43;;;;;;;0.10;0.10;;;1.90;99.90;;;;;;5002018;28;20037;-75
2021/12/21 11:10:15;;;;;;;0.10;0.10;;;1.90;99.90;;;;;;5008307;28;20037;-77
2021/12/21 11:12:53;;;;;;;0.10;0.10;;;1.90;99.90;;;;;;5001532;28;20034;-77
2021/12/21 11:15:22;;;;;;;0.10;0.10;;;1.90;99.90;;;;;;5009951;28;20022;-76
2021/12/21 11:17:48;;;;;;;0.10;0.10;;;1.90;99.90;;;;;;5003325;28;20018;-75
2021/12/21 11:20:15;;;;;;;0.10;0.10;;;2.00;99.90;;;;;;5006445;28;20422;-76
2021/12/21 11:22:44;;;;;;;0.10;0.10;;;2.10;99.90;;;;;;5003781;28;20030;-77
2021/12/21 11:25:12;;;;;;;0.10;0.10;;;2.10;99.90;;;;;;5008509;28;20053;-78
2021/12/21 11:27:40;;;;;;;0.63;0.63;;;2.20;99.90;;;;;;5004946;28;20026;-76
2021/12/21 11:30:12;;;;;;;0.10;0.10;;;2.20;99.90;;;;;;5006378;28;20030;-78
2021/12/21 11:32:43;;;;;;;0.10;0.10;;;2.30;99.90;;;;;;5009583;28;20599;-71
2021/12/21 11:37:37;;;;;;;0.20;0.20;;;2.40;99.90;;;;;;5005289;28;20034;-73
2021/12/21 11:40:04;;;;;;;0.10;0.10;;;2.40;99.90;;;;;;5007379;28;20025;-73
2021/12/21 11:42:55;;;;;;;0.28;0.28;;;2.50;99.90;;;;;;5007519;28;20125;-72
2021/12/21 11:45:27;;;;;;;0.10;0.10;;;2.60;99.90;;;;;;5003736;28;20029;-71
2021/12/21 11:47:55;;;;;;;0.10;0.10;;;2.50;99.90;;;;;;5007595;28;20061;-72
2021/12/21 11:50:22;;;;;;;0.10;0.10;;;2.50;99.90;;;;;;5008084;28;20065;-71
2021/12/21 11:52:54;;;;;;;0.10;0.10;;;2.60;99.90;;;;;;5008600;28;20032;-71
2021/12/21 11:55:23;;;;;;;0.75;0.75;;;2.70;99.90;;;;;;5000086;28;20258;-71
2021/12/21 11:57:52;;;;;;;0.10;0.10;;;2.60;99.90;;;;;;5005166;28;20036;-70
2021/12/21 12:00:31;;;;;;;0.10;0.10;;;2.70;99.90;;;;;;5005425;28;20026;-70
2021/12/21 12:03:15;;;;;;;0.10;0.10;;;2.70;99.90;;;;;;5020381;28;20087;-72
2021/12/21 12:05:49;;;;;;;0.10;0.10;;;2.60;99.90;;;;;;5022520;28;20021;-70
2021/12/21 12:08:15;;;;;;;0.20;0.20;;;2.70;99.90;;;;;;5001317;28;20025;-71
2021/12/21 12:10:54;;;;;;;0.10;0.10;;;2.70;99.90;;;;;;5011765;28;20033;-72
2021/12/21 12:13:37;;;;;;;0.10;0.10;;;2.70;99.90;;;;;;5014113;28;20030;-72
2021/12/21 12:16:15;;;;;;;0.10;0.10;;;2.80;99.90;;;;;;5008871;28;20430;-73
2021/12/21 12:18:47;;;;;;;0.10;0.10;;;2.80;99.90;;;;;;5004376;28;20034;-71
2021/12/21 12:21:25;;;;;;;0.43;0.43;;;2.80;99.90;;;;;;4999902;28;20010;-72
2021/12/21 12:24:01;;;;;;;0.10;0.10;;;2.80;99.90;;;;;;5004721;28;20057;-71
2021/12/21 12:26:36;;;;;;;0.10;0.10;;;2.80;99.90;;;;;;5003818;28;20502;-73
2021/12/21 12:29:19;;;;;;;0.10;0.10;;;2.80;99.90;;;;;;5008750;28;20029;-70
2021/12/21 12:32:06;;;;;;;0.10;0.10;;;2.90;99.90;;;;;;4999178;28;20027;-71
2021/12/21 12:34:36;;;;;;;0.10;0.10;;;2.80;99.90;;;;;;5008432;28;20511;-72
2021/12/21 12:37:13;;;;;;;0.10;0.10;;;3.00;99.90;;;;;;5007973;28;20025;-71
2021/12/21 12:39:42;;;;;;;0.10;0.10;;;3.10;99.90;;;;;;5000037;28;20027;-71
2021/12/21 12:42:16;;;;;;;0.10;0.10;;;3.00;99.90;;;;;;5008310;28;20022;-71
2021/12/21 12:44:45;;;;;;;0.10;0.10;;;3.00;99.90;;;;;;5006540;28;20034;-71
2021/12/21 12:47:16;;;;;;;0.10;0.10;;;2.90;99.90;;;;;;5003213;28;20198;-71
2021/12/21 12:49:49;;;;;;;0.10;0.10;;;2.90;99.90;;;;;;5006607;28;20061;-71
2021/12/21 12:52:31;;;;;;;0.10;0.10;;;3.10;99.90;;;;;;5006402;28;20116;-72
2021/12/21 12:55:12;;;;;;;0.10;0.10;;;3.00;99.90;;;;;;5007520;28;20117;-70
2021/12/21 12:57:48;;;;;;;0.10;0.10;;;3.10;99.90;;;;;;5001506;28;20038;-74
2021/12/21 13:00:30;;;;;;;0.10;0.10;;;3.10;99.90;;;;;;5008385;28;20076;-70
2021/12/21 13:03:06;;;;;;;0.10;0.10;;;3.10;99.90;;;;;;5003488;28;20093;-71
2021/12/21 13:05:52;;;;;;;0.10;0.10;;;3.00;99.90;;;;;;5004698;28;20073;-72
2021/12/21 13:08:21;;;;;;;0.10;0.10;;;3.10;99.90;;;;;;4996800;28;20033;-70
2021/12/21 13:10:56;;;;;;;0.10;0.10;;;3.10;99.90;;;;;;5009846;28;20062;-72
2021/12/21 13:13:32;;;;;;;0.10;0.10;;;3.20;99.90;;;;;;4988955;28;20491;-71
2021/12/21 13:15:57;;;;;;;0.10;0.10;;;3.20;99.90;;;;;;5006662;28;20040;-71
2021/12/21 13:18:23;;;;;;;0.10;0.10;;;3.10;99.90;;;;;;5003013;28;20033;-71
2021/12/21 13:20:51;;;;;;;0.10;0.10;;;3.20;99.90;;;;;;5007554;28;20034;-70
2021/12/21 13:23:22;;;;;;;0.10;0.10;;;3.50;99.90;;;;;;5005971;28;20511;-71
2021/12/21 13:25:55;;;;;;;0.10;0.10;;;3.90;99.90;;;;;;5005135;28;20034;-70
2021/12/21 13:28:21;;;;;;;0.10;0.10;;;5.00;99.90;;;;;;5009586;28;20057;-70
2021/12/21 13:30:48;;;;;;;0.10;0.10;;;6.50;99.90;;;;;;5007021;28;20111;-72
2021/12/21 13:33:23;;;;;;;0.00;0.00;;;7.50;99.90;;;;;;5010153;28;20025;-71
2021/12/21 13:35:55;;;;;;;0.10;0.10;;;7.90;99.90;;;;;;5008011;28;20045;-72
2021/12/21 13:38:25;;;;;;;0.00;0.00;;;8.40;99.90;;;;;;5006644;28;20021;-71
2021/12/21 13:40:58;;;;;;;0.90;0.90;;;7.90;99.90;;;;;;5008230;28;20025;-71
2021/12/21 13:43:24;;;;;;;0.05;0.05;;;7.50;99.90;;;;;;5009264;28;20117;-71
2021/12/21 13:45:57;;;;;;;0.08;0.08;;;7.80;99.90;;;;;;5005805;28;20077;-70
2021/12/21 13:48:23;;;;;;;0.00;0.00;;;8.40;99.50;;;;;;5010635;28;20053;-70
2021/12/21 13:50:49;;;;;;;0.00;0.00;;;8.60;98.30;;;;;;5004592;28;20057;-70
2021/12/21 13:53:18;;;;;;;0.00;0.00;;;8.70;96.80;;;;;;5007703;28;20080;-71
2021/12/21 13:55:47;;;;;;;0.00;0.00;;;8.30;96.90;;;;;;5009985;28;20044;-72
2021/12/21 13:58:13;;;;;;;0.00;0.00;;;8.20;96.60;;;;;;5006073;28;20585;-70
2021/12/21 14:00:45;;;;;;;0.22;0.22;;;8.30;95.70;;;;;;5009124;28;20030;-71
2021/12/21 14:03:21;;;;;;;0.10;0.10;;;8.40;95.20;;;;;;4999625;28;20531;-71
2021/12/21 14:05:57;;;;;;;0.00;0.00;;;8.30;96.10;;;;;;5005569;28;20045;-71